This is the latest recevied weather packets stored in our database for station/object EA1HTW-1. If no packets are shown the sender has not sent any weather packets the latest 10 day(s).
| Time | Temp. | Humidity | Pressure | Rain* | Wind** | Luminosity | Snow |
|---|---|---|---|---|---|---|---|
| 1778005765 | 13.33° C | 80% | 987.6 hPa | 0 mm | - | - | - |
| 1778005166 | 13.33° C | 78% | 987.6 hPa | 0 mm | - | - | - |
| 1778004567 | 13.33° C | 78% | 987.5 hPa | 0 mm | - | - | - |
| 1778003967 | 13.33° C | 78% | 987.3 hPa | 0 mm | - | - | - |
| 1778003365 | 13.33° C | 77% | 987.4 hPa | 0 mm | - | - | - |
| 1778002767 | 13.89° C | 78% | 987.5 hPa | 0 mm | - | - | - |
| 1778001565 | 13.89° C | 76% | 987.5 hPa | 0 mm | - | - | - |
| 1778000367 | 14.44° C | 77% | 987.5 hPa | 0 mm | - | - | - |
| 1777999766 | 13.89° C | 78% | 987.2 hPa | 0 mm | - | - | - |
| 1777998566 | 15° C | 76% | 987.3 hPa | 0 mm | - | - | - |
| 1777997966 | 14.44° C | 74% | 987.3 hPa | 0 mm | - | - | - |
| 1777997366 | 14.44° C | 77% | 987.1 hPa | 0 mm | - | - | - |
| 1777996168 | 14.44° C | 75% | 987.5 hPa | 0.25 mm | - | - | - |
| 1777995566 | 15.56° C | 75% | 987.4 hPa | 0.25 mm | - | - | - |
| 1777993766 | 13.89° C | 75% | 987.6 hPa | 0.25 mm | - | - | - |
| 1777993166 | 13.33° C | 81% | 987.5 hPa | 0.25 mm | - | - | - |
| 1777992565 | 12.78° C | 81% | 987.8 hPa | 0 mm | - | - | - |
| 1777991965 | 13.33° C | 80% | 987.9 hPa | 0 mm | - | - | - |
| 1777991364 | 13.89° C | 81% | 987.8 hPa | 0.51 mm | - | - | - |
| 1777990767 | 15° C | 83% | 987.8 hPa | 1.52 mm | - | - | - |
| 1777988964 | 11.67° C | 91% | 988.1 hPa | 1.52 mm | - | - | - |
| 1777988365 | 11.67° C | 90% | 987.9 hPa | 3.05 mm | - | - | - |
| 1777987165 | 11.67° C | 89% | 988.1 hPa | 1.78 mm | - | - | - |
| 1777985966 | 11.67° C | 90% | 987.8 hPa | 1.78 mm | - | - | - |
| 1777984763 | 13.33° C | 83% | 987.9 hPa | 0.25 mm | - | - | - |
* Rain latest hour (hover to see other rain measurements)
** Current wind speed in m/s (hover to see current wind gust speed)